Kansas City, Missouri
Traffic Map
Current Weather Conditions
Kansas City, Missouri
Clear
Clear
26°
Feels Like: 27°
Wind Chill: 26° Ceiling: Unl
Heat Index: 27° Visibility: 10mi
Dew Point: 20° Wind: 6mph
Humidity: 71% Direction: ° ()
Pressure: 30.06in Gusts: 0mph
Raw Report DataKMKC 261354Z VRB05KT 10SM CLR 26/20 A3006 RMK AO2 SLP171 T02560200
Traffic Incident Summary
Active as of:
Severity:
Category:
InformationThere was an issue retrieving the traffic information for this location. Please try a different location or try again shortly.
Advertisements
Track Severe Weather on mobile